createdAt,value
2023-05-01T00:01:30.654Z,8.01
2023-05-01T00:03:57.324Z,7.99
2023-05-01T00:06:24.164Z,7.98
2023-05-01T00:08:50.692Z,7.97
2023-05-01T00:11:17.386Z,7.93
2023-05-01T00:13:43.845Z,7.90
2023-05-01T00:16:11.476Z,7.89
2023-05-01T00:18:38.631Z,7.86
2023-05-01T00:21:05.537Z,7.89
2023-05-01T00:23:32.183Z,7.96
2023-05-01T00:25:58.711Z,7.93
2023-05-01T00:28:25.264Z,7.81
2023-05-01T00:30:52.224Z,7.81
2023-05-01T00:33:18.971Z,7.79
2023-05-01T00:35:46.249Z,7.72
2023-05-01T00:38:12.980Z,7.62
2023-05-01T00:40:43.829Z,7.64
2023-05-01T00:43:11.999Z,7.64
2023-05-01T00:45:39.951Z,7.63
2023-05-01T00:48:06.717Z,7.64
2023-05-01T00:50:33.389Z,7.62
2023-05-01T00:53:00.296Z,7.59
2023-05-01T00:55:27.117Z,7.59
2023-05-01T00:57:55.374Z,7.55
2023-05-01T01:00:24.495Z,7.58
2023-05-01T01:02:52.122Z,7.56
2023-05-01T01:05:21.829Z,7.57
2023-05-01T01:07:58.165Z,7.55
2023-05-01T01:10:35.450Z,7.54
2023-05-01T01:13:11.983Z,7.53
2023-05-01T01:15:50.767Z,7.52
2023-05-01T01:18:27.838Z,7.50
2023-05-01T01:21:18.927Z,7.48
2023-05-01T01:24:22.092Z,7.50
2023-05-01T01:27:07.115Z,7.50
2023-05-01T01:29:56.506Z,7.46
2023-05-01T01:32:53.869Z,7.48
2023-05-01T01:35:24.449Z,7.42
2023-05-01T01:38:07.559Z,7.43
2023-05-01T01:40:59.819Z,7.43
2023-05-01T01:43:27.481Z,7.35
2023-05-01T01:45:59.468Z,7.36
2023-05-01T01:48:31.784Z,7.36
2023-05-01T01:50:59.506Z,7.29
2023-05-01T01:53:28.495Z,7.30
2023-05-01T01:55:58.182Z,7.24
2023-05-01T01:58:26.819Z,7.24
2023-05-01T02:00:55.385Z,7.26
2023-05-01T02:03:24.262Z,7.23
2023-05-01T02:05:53.844Z,7.28
2023-05-01T02:08:21.344Z,7.29
2023-05-01T02:10:50.482Z,7.27
2023-05-01T02:13:18.348Z,7.25
2023-05-01T02:15:45.889Z,7.28
2023-05-01T02:18:13.989Z,7.28
2023-05-01T02:20:42.755Z,7.28
2023-05-01T02:23:10.068Z,7.27
2023-05-01T02:25:39.356Z,7.22
2023-05-01T02:28:13.549Z,7.25
2023-05-01T02:30:40.326Z,7.25
2023-05-01T02:33:08.520Z,7.21
2023-05-01T02:35:44.021Z,7.21
2023-05-01T02:38:12.803Z,7.20
2023-05-01T02:40:39.879Z,7.19
2023-05-01T02:43:10.736Z,7.21
2023-05-01T02:45:41.494Z,7.18
2023-05-01T02:48:10.973Z,7.21
2023-05-01T02:50:40.914Z,7.20
2023-05-01T02:53:08.395Z,7.24
2023-05-01T02:55:35.893Z,7.24
2023-05-01T02:58:02.485Z,7.27
2023-05-01T03:00:29.955Z,7.24
2023-05-01T03:02:56.625Z,7.25
2023-05-01T03:05:23.169Z,7.30
2023-05-01T03:07:51.239Z,7.32
2023-05-01T03:10:17.827Z,7.34
2023-05-01T03:12:44.414Z,7.36
2023-05-01T03:15:12.632Z,7.40
2023-05-01T03:17:39.694Z,7.45
2023-05-01T03:20:07.173Z,7.47
2023-05-01T03:22:33.720Z,7.49
2023-05-01T03:25:00.679Z,7.48
2023-05-01T03:27:27.539Z,7.53
2023-05-01T03:29:54.246Z,7.58
2023-05-01T03:32:21.017Z,7.58
2023-05-01T03:34:47.767Z,7.62
2023-05-01T03:37:15.143Z,7.61
2023-05-01T03:39:41.873Z,7.67
2023-05-01T03:42:08.345Z,7.68
2023-05-01T03:44:34.854Z,7.74
2023-05-01T03:47:01.837Z,7.73
2023-05-01T03:49:28.846Z,7.76
2023-05-01T03:51:55.342Z,7.77
2023-05-01T03:54:21.900Z,7.81
2023-05-01T03:56:48.375Z,7.86
2023-05-01T03:59:15.023Z,7.89
2023-05-01T04:01:41.621Z,7.87
2023-05-01T04:04:08.289Z,7.88
2023-05-01T04:06:35.323Z,7.93
2023-05-01T04:09:02.612Z,7.94
2023-05-01T04:11:29.115Z,7.94
2023-05-01T04:13:55.582Z,7.99
2023-05-01T04:16:22.158Z,8.03
2023-05-01T04:18:48.718Z,8.03
2023-05-01T04:21:17.674Z,8.07
2023-05-01T04:23:44.738Z,8.11
2023-05-01T04:26:11.221Z,8.08
2023-05-01T04:28:37.995Z,8.14
2023-05-01T04:31:04.574Z,8.07
2023-05-01T04:33:31.050Z,8.08
2023-05-01T04:35:57.549Z,8.13
2023-05-01T04:38:24.007Z,8.17
2023-05-01T04:40:50.677Z,8.19
2023-05-01T04:43:17.286Z,8.22
2023-05-01T04:45:43.739Z,8.27
2023-05-01T04:48:10.301Z,8.26
2023-05-01T04:50:37.649Z,8.21
2023-05-01T04:53:04.141Z,8.26
2023-05-01T04:55:31.229Z,8.37
2023-05-01T04:57:57.829Z,8.38
2023-05-01T05:00:24.392Z,8.44
2023-05-01T05:02:51.173Z,8.47
2023-05-01T05:05:17.696Z,8.51
2023-05-01T05:07:44.211Z,8.57
2023-05-01T05:10:10.805Z,8.63
2023-05-01T05:12:37.288Z,8.69
2023-05-01T05:15:03.946Z,8.72
2023-05-01T05:17:30.664Z,8.82
2023-05-01T05:19:57.382Z,8.85
2023-05-01T05:22:25.986Z,8.88
2023-05-01T05:24:59.994Z,8.97
2023-05-01T05:27:26.759Z,9.03
2023-05-01T05:29:53.369Z,9.08
2023-05-01T05:32:20.175Z,9.13
2023-05-01T05:34:47.458Z,9.17
2023-05-01T05:37:13.959Z,9.20
2023-05-01T05:39:40.502Z,9.19
2023-05-01T05:42:07.057Z,9.24
2023-05-01T05:44:35.988Z,9.27
2023-05-01T05:47:02.534Z,9.33
2023-05-01T05:49:29.143Z,9.34
2023-05-01T05:51:56.160Z,9.37
2023-05-01T05:54:22.685Z,9.48
2023-05-01T05:56:49.129Z,9.51
2023-05-01T05:59:17.391Z,9.58
2023-05-01T06:01:44.318Z,9.64
2023-05-01T06:04:11.922Z,9.73
2023-05-01T06:06:39.210Z,9.77
2023-05-01T06:09:08.232Z,9.80
2023-05-01T06:11:34.686Z,9.83
2023-05-01T06:14:02.775Z,9.89
2023-05-01T06:16:29.681Z,9.90
2023-05-01T06:18:56.431Z,9.97
2023-05-01T06:21:22.991Z,10.09
2023-05-01T06:23:49.461Z,10.14
2023-05-01T06:26:15.939Z,10.21
2023-05-01T06:28:42.425Z,10.25
2023-05-01T06:31:08.992Z,10.35
2023-05-01T06:33:35.549Z,10.36
2023-05-01T06:36:02.420Z,10.46
2023-05-01T06:38:28.980Z,10.52
2023-05-01T06:40:55.700Z,10.59
2023-05-01T06:43:22.218Z,10.63
2023-05-01T06:45:48.923Z,10.62
2023-05-01T06:48:15.495Z,10.68
2023-05-01T06:50:42.075Z,10.68
2023-05-01T06:53:08.582Z,10.73
2023-05-01T06:55:35.951Z,10.86
2023-05-01T06:58:04.856Z,10.95
2023-05-01T07:00:36.623Z,11.01
2023-05-01T07:03:04.094Z,11.03
2023-05-01T07:05:30.582Z,11.03
2023-05-01T07:08:01.331Z,11.03
2023-05-01T07:10:29.207Z,11.08
2023-05-01T07:12:55.696Z,11.08
2023-05-01T07:15:22.368Z,11.09
2023-05-01T07:17:50.446Z,11.14
2023-05-01T07:20:17.107Z,11.21
2023-05-01T07:22:44.228Z,11.29
2023-05-01T07:25:10.803Z,11.38
2023-05-01T07:27:37.315Z,11.48
2023-05-01T07:30:05.242Z,11.59
2023-05-01T07:32:33.128Z,11.72
2023-05-01T07:35:00.000Z,11.80
2023-05-01T07:37:27.071Z,11.82
2023-05-01T07:39:53.604Z,11.88
2023-05-01T07:42:20.152Z,11.86
2023-05-01T07:44:46.865Z,11.88
2023-05-01T07:47:13.525Z,11.83
2023-05-01T07:49:40.166Z,11.83
2023-05-01T07:52:09.706Z,11.86
2023-05-01T07:54:36.429Z,11.94
2023-05-01T07:57:03.674Z,11.95
2023-05-01T07:59:30.337Z,11.98
2023-05-01T08:01:56.975Z,12.00
2023-05-01T08:04:23.552Z,12.01
2023-05-01T08:06:51.533Z,12.00
2023-05-01T08:09:18.095Z,12.02
2023-05-01T08:11:44.620Z,12.09
2023-05-01T08:14:11.373Z,12.14
2023-05-01T08:16:38.173Z,12.15
2023-05-01T08:19:04.712Z,12.22
2023-05-01T08:21:31.381Z,12.20
2023-05-01T08:23:57.820Z,12.28
2023-05-01T08:26:24.329Z,12.36
2023-05-01T08:28:51.081Z,12.38
2023-05-01T08:31:19.302Z,12.39
2023-05-01T08:33:45.906Z,12.46
2023-05-01T08:36:12.624Z,12.53
2023-05-01T08:38:39.123Z,12.55
2023-05-01T08:41:06.180Z,12.62
2023-05-01T08:43:33.123Z,12.67
2023-05-01T08:46:04.906Z,12.70
2023-05-01T08:48:35.317Z,12.72
2023-05-01T08:51:03.566Z,12.75
2023-05-01T08:53:33.292Z,12.83
2023-05-01T08:56:00.578Z,12.87
2023-05-01T08:58:28.068Z,12.91
2023-05-01T09:00:57.488Z,12.97
2023-05-01T09:03:25.171Z,13.05
2023-05-01T09:05:53.425Z,13.12
2023-05-01T09:08:20.859Z,13.19
2023-05-01T09:10:49.422Z,13.19
2023-05-01T09:13:16.129Z,13.31
2023-05-01T09:15:42.676Z,13.38
2023-05-01T09:18:09.465Z,13.37
2023-05-01T09:20:37.921Z,13.37
2023-05-01T09:23:05.077Z,13.41
2023-05-01T09:25:31.543Z,13.43
2023-05-01T09:27:58.166Z,13.57
2023-05-01T09:30:35.392Z,13.67
2023-05-01T09:33:06.753Z,13.77
2023-05-01T09:35:47.863Z,13.87
2023-05-01T09:38:21.583Z,13.96
2023-05-01T09:40:48.614Z,14.09
2023-05-01T09:43:25.650Z,14.21
2023-05-01T09:46:10.483Z,14.36
2023-05-01T09:48:38.013Z,14.56
2023-05-01T09:51:20.696Z,14.69
2023-05-01T09:53:47.166Z,14.68
2023-05-01T09:56:14.867Z,14.70
2023-05-01T09:58:41.480Z,14.74
2023-05-01T10:01:08.645Z,14.76
2023-05-01T10:03:35.511Z,14.81
2023-05-01T10:06:03.887Z,14.85
2023-05-01T10:08:46.915Z,14.93
2023-05-01T10:11:13.538Z,14.97
2023-05-01T10:13:40.462Z,14.98
2023-05-01T10:16:08.526Z,15.10
2023-05-01T10:18:35.720Z,15.19
2023-05-01T10:21:03.532Z,15.20
2023-05-01T10:23:30.032Z,15.33
2023-05-01T10:25:58.595Z,15.46
2023-05-01T10:28:28.828Z,15.56
2023-05-01T10:30:57.493Z,15.74
2023-05-01T10:33:25.234Z,15.83
2023-05-01T10:36:00.789Z,15.85
2023-05-01T10:38:37.669Z,15.93
2023-05-01T10:41:06.228Z,15.99
2023-05-01T10:43:32.915Z,16.00
2023-05-01T10:46:09.238Z,16.09
2023-05-01T10:48:42.282Z,16.20
2023-05-01T10:51:15.647Z,16.29
2023-05-01T10:53:43.707Z,16.36
2023-05-01T10:56:26.473Z,16.50
2023-05-01T10:58:52.920Z,16.53
2023-05-01T11:01:29.471Z,16.53
2023-05-01T11:03:56.979Z,16.57
2023-05-01T11:06:24.157Z,16.53
2023-05-01T11:08:50.847Z,16.41
2023-05-01T11:11:20.071Z,16.31
2023-05-01T11:14:05.980Z,16.21
2023-05-01T11:16:42.112Z,16.16
2023-05-01T11:19:11.945Z,16.17
2023-05-01T11:21:40.660Z,16.21
2023-05-01T11:24:08.037Z,16.20
2023-05-01T11:26:41.732Z,16.29
2023-05-01T11:29:10.583Z,16.37
2023-05-01T11:31:38.174Z,16.44
2023-05-01T11:34:07.001Z,16.53
2023-05-01T11:36:52.392Z,16.54
2023-05-01T11:39:19.505Z,16.71
2023-05-01T11:41:46.968Z,16.98
2023-05-01T11:44:17.617Z,17.16
2023-05-01T11:46:44.523Z,17.27
2023-05-01T11:49:11.270Z,17.39
2023-05-01T11:51:37.846Z,17.53
2023-05-01T11:54:07.326Z,17.65
2023-05-01T11:56:35.397Z,17.78
2023-05-01T11:59:16.832Z,17.82
2023-05-01T12:01:47.037Z,17.83
2023-05-01T12:04:24.269Z,18.04
2023-05-01T12:06:51.270Z,18.14
2023-05-01T12:09:20.285Z,18.20
2023-05-01T12:11:52.399Z,18.05
2023-05-01T12:14:21.647Z,18.06
2023-05-01T12:16:48.600Z,18.09
2023-05-01T12:19:15.818Z,17.97
2023-05-01T12:21:42.554Z,17.70
2023-05-01T12:24:10.465Z,17.64
2023-05-01T12:26:37.808Z,17.46
2023-05-01T12:29:06.714Z,17.27
2023-05-01T12:31:33.991Z,16.92
2023-05-01T12:34:07.569Z,16.48
2023-05-01T12:36:36.078Z,16.41
2023-05-01T12:39:07.670Z,16.18
2023-05-01T12:41:36.709Z,16.03
2023-05-01T12:44:16.786Z,15.91
2023-05-01T12:46:44.667Z,15.88
2023-05-01T12:49:21.072Z,15.90
2023-05-01T12:51:52.203Z,15.88
2023-05-01T12:54:22.861Z,15.88
2023-05-01T12:56:55.005Z,15.93
2023-05-01T12:59:26.299Z,15.88
2023-05-01T13:02:07.447Z,15.76
2023-05-01T13:04:35.173Z,15.75
2023-05-01T13:07:02.651Z,15.68
2023-05-01T13:09:32.546Z,15.56
2023-05-01T13:12:05.901Z,15.59
2023-05-01T13:14:43.350Z,15.54
2023-05-01T13:17:11.767Z,15.47
2023-05-01T13:19:39.530Z,15.36
2023-05-01T13:22:06.536Z,15.19
2023-05-01T13:24:40.990Z,15.17
2023-05-01T13:27:11.842Z,15.18
2023-05-01T13:29:39.612Z,15.07
2023-05-01T13:32:10.036Z,14.99
2023-05-01T13:34:37.719Z,14.94
2023-05-01T13:37:04.147Z,14.87
2023-05-01T13:39:30.722Z,14.85
2023-05-01T13:41:57.156Z,14.77
2023-05-01T13:44:23.657Z,14.76
2023-05-01T13:46:50.355Z,14.80
2023-05-01T13:49:22.306Z,14.82
2023-05-01T13:51:48.894Z,14.75
2023-05-01T13:54:15.696Z,14.77
2023-05-01T13:56:42.271Z,14.80
2023-05-01T13:59:09.338Z,14.77
2023-05-01T14:01:46.254Z,14.82
2023-05-01T14:04:18.580Z,14.83
2023-05-01T14:06:47.057Z,14.93
2023-05-01T14:09:17.337Z,15.00
2023-05-01T14:11:46.805Z,15.10
2023-05-01T14:14:18.251Z,15.18
2023-05-01T14:16:49.147Z,15.41
2023-05-01T14:19:20.112Z,15.60
2023-05-01T14:21:47.017Z,15.84
2023-05-01T14:24:17.823Z,16.35
2023-05-01T14:26:47.780Z,16.86
2023-05-01T14:29:22.945Z,17.22
2023-05-01T14:31:49.581Z,17.43
2023-05-01T14:34:18.027Z,17.72
2023-05-01T14:36:44.560Z,18.02
2023-05-01T14:39:11.080Z,18.42
2023-05-01T14:41:42.300Z,18.69
2023-05-01T14:44:39.393Z,19.17
2023-05-01T14:47:09.487Z,19.79
2023-05-01T14:49:36.056Z,19.80
2023-05-01T14:52:02.726Z,19.75
2023-05-01T14:54:33.169Z,19.19
2023-05-01T14:57:03.756Z,18.59
2023-05-01T14:59:30.302Z,18.20
2023-05-01T15:01:57.097Z,17.91
2023-05-01T15:04:24.341Z,17.74
2023-05-01T15:06:50.934Z,17.41
2023-05-01T15:09:17.395Z,17.31
2023-05-01T15:11:43.840Z,17.18
2023-05-01T15:14:10.328Z,16.98
2023-05-01T15:16:37.446Z,16.82
2023-05-01T15:19:03.936Z,16.68
2023-05-01T15:21:31.651Z,16.53
2023-05-01T15:23:58.157Z,16.46
2023-05-01T15:26:24.757Z,16.47
2023-05-01T15:28:51.333Z,16.42
2023-05-01T15:31:19.314Z,16.34
2023-05-01T15:33:46.297Z,16.36
2023-05-01T15:36:13.259Z,16.33
2023-05-01T15:38:39.721Z,16.35
2023-05-01T15:41:06.172Z,16.36
2023-05-01T15:43:32.653Z,16.60
2023-05-01T15:45:59.835Z,16.44
2023-05-01T15:48:26.809Z,16.22
2023-05-01T15:50:53.278Z,15.99
2023-05-01T15:53:21.093Z,15.91
2023-05-01T15:55:47.588Z,15.84
2023-05-01T15:58:16.711Z,15.77
2023-05-01T16:00:47.058Z,15.73
2023-05-01T16:03:14.749Z,15.70
2023-05-01T16:05:45.665Z,15.63
2023-05-01T16:08:12.860Z,15.62
2023-05-01T16:10:40.582Z,15.56
2023-05-01T16:13:07.446Z,15.50
2023-05-01T16:15:34.447Z,15.52
2023-05-01T16:18:04.017Z,15.49
2023-05-01T16:20:35.579Z,15.47
2023-05-01T16:23:02.384Z,15.48
2023-05-01T16:25:28.932Z,15.43
2023-05-01T16:27:55.568Z,15.39
2023-05-01T16:30:24.600Z,15.33
2023-05-01T16:32:51.119Z,15.38
2023-05-01T16:35:18.343Z,15.38
2023-05-01T16:37:45.102Z,15.40
2023-05-01T16:40:16.841Z,15.33
2023-05-01T16:42:49.274Z,15.23
2023-05-01T16:45:15.898Z,15.11
2023-05-01T16:47:42.419Z,15.05
2023-05-01T16:50:09.970Z,14.98
2023-05-01T16:52:36.679Z,14.96
2023-05-01T16:55:03.716Z,14.90
2023-05-01T16:57:30.274Z,14.84
2023-05-01T16:59:56.908Z,14.77
2023-05-01T17:02:23.509Z,14.71
2023-05-01T17:04:50.067Z,14.66
2023-05-01T17:07:16.720Z,14.64
2023-05-01T17:09:43.219Z,14.59
2023-05-01T17:12:09.986Z,14.58
2023-05-01T17:14:36.456Z,14.67
2023-05-01T17:17:03.634Z,14.66
2023-05-01T17:19:31.581Z,14.68
2023-05-01T17:21:58.415Z,14.70
2023-05-01T17:24:25.750Z,14.70
2023-05-01T17:26:52.579Z,14.70
2023-05-01T17:29:19.043Z,14.71
2023-05-01T17:31:45.584Z,14.66
2023-05-01T17:34:12.063Z,14.67
2023-05-01T17:36:38.546Z,14.66
2023-05-01T17:39:05.135Z,14.69
2023-05-01T17:41:31.638Z,14.69
2023-05-01T17:43:58.143Z,14.68
2023-05-01T17:46:24.877Z,14.93
2023-05-01T17:48:51.438Z,15.32
2023-05-01T17:51:18.136Z,15.38
2023-05-01T17:53:44.623Z,15.20
2023-05-01T17:56:11.345Z,15.14
2023-05-01T17:58:38.052Z,14.97
2023-05-01T18:01:04.981Z,14.85
2023-05-01T18:03:32.747Z,14.82
2023-05-01T18:06:00.994Z,14.80
2023-05-01T18:08:27.575Z,14.76
2023-05-01T18:10:54.033Z,14.82
2023-05-01T18:13:27.541Z,14.82
2023-05-01T18:15:57.231Z,14.83
2023-05-01T18:18:23.975Z,14.63
2023-05-01T18:20:50.581Z,14.39
2023-05-01T18:23:20.174Z,14.23
2023-05-01T18:25:46.677Z,14.12
2023-05-01T18:28:13.685Z,14.01
2023-05-01T18:30:40.130Z,13.98
2023-05-01T18:33:06.698Z,13.95
2023-05-01T18:35:33.573Z,13.85
2023-05-01T18:38:00.028Z,13.85
2023-05-01T18:40:27.230Z,13.80
2023-05-01T18:42:53.812Z,13.72
2023-05-01T18:45:20.314Z,13.68
2023-05-01T18:47:46.939Z,13.63
2023-05-01T18:50:13.656Z,13.61
2023-05-01T18:52:41.740Z,13.54
2023-05-01T18:55:11.291Z,13.51
2023-05-01T18:57:37.958Z,13.49
2023-05-01T19:00:05.807Z,13.42
2023-05-01T19:02:32.321Z,13.37
2023-05-01T19:04:58.963Z,13.32
2023-05-01T19:07:26.514Z,13.30
2023-05-01T19:09:53.174Z,13.29
2023-05-01T19:12:19.630Z,13.25
2023-05-01T19:14:46.248Z,13.19
2023-05-01T19:17:12.704Z,13.10
2023-05-01T19:19:39.184Z,13.07
2023-05-01T19:22:06.326Z,13.02
2023-05-01T19:24:32.907Z,12.97
2023-05-01T19:26:59.466Z,12.96
2023-05-01T19:29:26.106Z,12.89
2023-05-01T19:31:52.684Z,12.87
2023-05-01T19:34:20.278Z,12.73
2023-05-01T19:36:46.822Z,12.68
2023-05-01T19:39:13.353Z,12.61
2023-05-01T19:41:39.856Z,12.56
2023-05-01T19:44:06.665Z,12.43
2023-05-01T19:46:33.230Z,12.38
2023-05-01T19:48:59.725Z,12.27
2023-05-01T19:51:26.575Z,12.25
2023-05-01T19:53:53.116Z,12.20
2023-05-01T19:56:19.588Z,12.16
2023-05-01T19:58:46.340Z,12.08
2023-05-01T20:01:13.182Z,12.08
2023-05-01T20:03:39.889Z,12.02
2023-05-01T20:06:07.514Z,11.91
2023-05-01T20:08:34.112Z,11.91
2023-05-01T20:11:01.761Z,11.90
2023-05-01T20:13:28.397Z,11.77
2023-05-01T20:15:55.320Z,11.71
2023-05-01T20:18:22.166Z,11.62
2023-05-01T20:20:48.759Z,11.61
2023-05-01T20:23:17.314Z,11.52
2023-05-01T20:25:43.888Z,11.58
2023-05-01T20:28:12.938Z,11.60
2023-05-01T20:30:41.081Z,11.63
2023-05-01T20:33:10.627Z,11.63
2023-05-01T20:35:37.643Z,11.60
2023-05-01T20:38:07.162Z,11.60
2023-05-01T20:40:33.824Z,11.61
2023-05-01T20:43:00.724Z,11.60
2023-05-01T20:45:29.073Z,11.63
2023-05-01T20:47:56.244Z,11.65
2023-05-01T20:50:23.213Z,11.70
2023-05-01T20:52:49.993Z,11.72
2023-05-01T20:55:16.578Z,11.72
2023-05-01T20:57:43.032Z,11.74
2023-05-01T21:00:10.088Z,11.68
2023-05-01T21:02:41.333Z,11.67
2023-05-01T21:05:10.278Z,11.65
2023-05-01T21:07:38.119Z,11.60
2023-05-01T21:10:10.314Z,11.60
2023-05-01T21:12:37.667Z,11.49
2023-05-01T21:15:04.779Z,11.39
2023-05-01T21:17:33.584Z,11.40
2023-05-01T21:20:00.432Z,11.37
2023-05-01T21:22:27.761Z,11.33
2023-05-01T21:24:56.695Z,11.28
2023-05-01T21:27:24.664Z,11.27
2023-05-01T21:30:02.332Z,11.21
2023-05-01T21:32:32.548Z,11.22
2023-05-01T21:35:02.646Z,11.23
2023-05-01T21:37:29.559Z,11.22
2023-05-01T21:39:59.546Z,11.24
2023-05-01T21:42:31.202Z,11.23
2023-05-01T21:44:59.308Z,11.24
2023-05-01T21:47:26.347Z,11.25
2023-05-01T21:49:56.864Z,11.24
2023-05-01T21:52:23.501Z,11.25
2023-05-01T21:54:50.166Z,11.23
2023-05-01T21:57:16.629Z,11.24
2023-05-01T21:59:45.011Z,11.30
2023-05-01T22:02:12.227Z,11.27
2023-05-01T22:04:38.931Z,11.24
2023-05-01T22:07:06.164Z,11.25
2023-05-01T22:09:33.257Z,11.24
2023-05-01T22:11:59.809Z,11.25
2023-05-01T22:14:33.603Z,11.26
2023-05-01T22:17:06.745Z,11.28
2023-05-01T22:19:33.343Z,11.24
2023-05-01T22:21:59.886Z,11.19
2023-05-01T22:24:26.399Z,11.14
2023-05-01T22:26:53.095Z,11.17
2023-05-01T22:29:19.536Z,11.15
2023-05-01T22:31:46.362Z,11.15
2023-05-01T22:34:12.938Z,11.16
2023-05-01T22:36:39.570Z,11.16
2023-05-01T22:39:06.092Z,11.10
2023-05-01T22:41:32.901Z,11.09
2023-05-01T22:43:59.365Z,11.04
2023-05-01T22:46:25.906Z,11.05
2023-05-01T22:48:52.547Z,11.08
2023-05-01T22:51:18.997Z,11.07
2023-05-01T22:53:45.470Z,11.09
2023-05-01T22:56:11.920Z,11.03
2023-05-01T22:58:38.566Z,11.03
2023-05-01T23:01:05.144Z,11.03
2023-05-01T23:03:33.184Z,11.02
2023-05-01T23:06:00.934Z,10.94
2023-05-01T23:08:28.197Z,10.88
2023-05-01T23:10:54.823Z,10.85
2023-05-01T23:13:23.388Z,10.81
2023-05-01T23:15:50.137Z,10.80
2023-05-01T23:18:30.034Z,10.78
2023-05-01T23:20:56.777Z,10.76
2023-05-01T23:23:29.660Z,10.73
2023-05-01T23:25:56.398Z,10.66
2023-05-01T23:28:24.924Z,10.64
2023-05-01T23:31:32.103Z,10.60
2023-05-01T23:34:02.176Z,10.56
2023-05-01T23:36:29.055Z,10.51
2023-05-01T23:38:55.796Z,10.44
2023-05-01T23:41:24.521Z,10.44
2023-05-01T23:43:51.202Z,10.43
2023-05-01T23:46:17.796Z,10.38
2023-05-01T23:48:44.395Z,10.33
2023-05-01T23:51:10.998Z,10.35
2023-05-01T23:53:37.484Z,10.36
2023-05-01T23:56:04.205Z,10.37
2023-05-01T23:58:30.673Z,10.41
